sensor_id;sensor_type;location;lat;lon;timestamp;pressure;altitude;pressure_sealevel;temperature
68127;BMP180;54931;52.098;21.006;2022-09-20T00:01:28;99767.20;;;9.40
68127;BMP180;54931;52.098;21.006;2022-09-20T00:03:59;99765.60;;;9.40
68127;BMP180;54931;52.098;21.006;2022-09-20T00:06:28;99769.20;;;9.30
68127;BMP180;54931;52.098;21.006;2022-09-20T00:08:56;99773.80;;;9.30
68127;BMP180;54931;52.098;21.006;2022-09-20T00:11:26;99774.00;;;9.26
68127;BMP180;54931;52.098;21.006;2022-09-20T00:13:56;99775.20;;;9.20
68127;BMP180;54931;52.098;21.006;2022-09-20T00:16:26;99773.80;;;9.10
68127;BMP180;54931;52.098;21.006;2022-09-20T00:18:55;99774.20;;;9.10
68127;BMP180;54931;52.098;21.006;2022-09-20T00:21:25;99780.20;;;9.10
68127;BMP180;54931;52.098;21.006;2022-09-20T00:23:53;99782.00;;;9.02
68127;BMP180;54931;52.098;21.006;2022-09-20T00:26:20;99782.40;;;9.00
68127;BMP180;54931;52.098;21.006;2022-09-20T00:28:47;99781.40;;;9.00
68127;BMP180;54931;52.098;21.006;2022-09-20T00:31:14;99782.40;;;9.00
68127;BMP180;54931;52.098;21.006;2022-09-20T00:33:41;99783.20;;;8.92
68127;BMP180;54931;52.098;21.006;2022-09-20T00:36:27;99778.40;;;8.90
68127;BMP180;54931;52.098;21.006;2022-09-20T00:38:55;99778.60;;;8.90
68127;BMP180;54931;52.098;21.006;2022-09-20T00:41:22;99780.80;;;8.90
68127;BMP180;54931;52.098;21.006;2022-09-20T00:43:50;99784.40;;;8.90
68127;BMP180;54931;52.098;21.006;2022-09-20T00:46:46;99785.20;;;8.90
68127;BMP180;54931;52.098;21.006;2022-09-20T00:49:24;99782.40;;;8.88
68127;BMP180;54931;52.098;21.006;2022-09-20T00:51:58;99782.40;;;8.82
68127;BMP180;54931;52.098;21.006;2022-09-20T00:54:27;99785.20;;;8.80
68127;BMP180;54931;52.098;21.006;2022-09-20T00:56:55;99783.80;;;8.80
68127;BMP180;54931;52.098;21.006;2022-09-20T00:59:26;99784.00;;;8.80
68127;BMP180;54931;52.098;21.006;2022-09-20T01:01:58;99784.60;;;8.80
68127;BMP180;54931;52.098;21.006;2022-09-20T01:04:26;99787.60;;;8.80
68127;BMP180;54931;52.098;21.006;2022-09-20T01:07:02;99781.00;;;8.80
68127;BMP180;54931;52.098;21.006;2022-09-20T01:09:30;99782.60;;;8.80
68127;BMP180;54931;52.098;21.006;2022-09-20T01:12:01;99787.80;;;8.80
68127;BMP180;54931;52.098;21.006;2022-09-20T01:14:29;99786.00;;;8.84
68127;BMP180;54931;52.098;21.006;2022-09-20T01:16:59;99781.60;;;8.90
68127;BMP180;54931;52.098;21.006;2022-09-20T01:29:08;99790.20;;;8.90
68127;BMP180;54931;52.098;21.006;2022-09-20T01:31:43;99788.60;;;9.00
68127;BMP180;54931;52.098;21.006;2022-09-20T01:34:31;99787.00;;;8.96
68127;BMP180;54931;52.098;21.006;2022-09-20T01:37:32;99791.20;;;8.90
68127;BMP180;54931;52.098;21.006;2022-09-20T01:42:38;99794.20;;;8.90
68127;BMP180;54931;52.098;21.006;2022-09-20T01:48:13;99801.40;;;8.90
68127;BMP180;54931;52.098;21.006;2022-09-20T01:53:48;99801.40;;;8.90
68127;BMP180;54931;52.098;21.006;2022-09-20T02:11:29;99807.20;;;8.92
68127;BMP180;54931;52.098;21.006;2022-09-20T02:14:14;99813.00;;;8.98
68127;BMP180;54931;52.098;21.006;2022-09-20T02:22:30;99818.00;;;9.00
68127;BMP180;54931;52.098;21.006;2022-09-20T02:25:48;99821.00;;;9.00
68127;BMP180;54931;52.098;21.006;2022-09-20T02:46:11;99820.80;;;9.08
68127;BMP180;54931;52.098;21.006;2022-09-20T02:49:17;99819.00;;;9.00
68127;BMP180;54931;52.098;21.006;2022-09-20T02:52:02;99821.20;;;9.00
68127;BMP180;54931;52.098;21.006;2022-09-20T03:00:09;99825.40;;;9.00
68127;BMP180;54931;52.098;21.006;2022-09-20T03:03:22;99828.20;;;9.00
68127;BMP180;54931;52.098;21.006;2022-09-20T03:06:27;99828.00;;;8.98
68127;BMP180;54931;52.098;21.006;2022-09-20T03:09:21;99831.60;;;8.94
68127;BMP180;54931;52.098;21.006;2022-09-20T03:14:27;99833.60;;;8.90
68127;BMP180;54931;52.098;21.006;2022-09-20T03:17:17;99832.80;;;8.90
68127;BMP180;54931;52.098;21.006;2022-09-20T03:20:04;99839.00;;;8.90
68127;BMP180;54931;52.098;21.006;2022-09-20T03:25:54;99832.00;;;8.90
68127;BMP180;54931;52.098;21.006;2022-09-20T03:31:45;99831.60;;;8.90
68127;BMP180;54931;52.098;21.006;2022-09-20T03:42:25;99832.60;;;8.90
68127;BMP180;54931;52.098;21.006;2022-09-20T03:56:34;99844.60;;;8.90
68127;BMP180;54931;52.098;21.006;2022-09-20T04:02:13;99836.40;;;8.90
68127;BMP180;54931;52.098;21.006;2022-09-20T04:13:20;99854.60;;;8.82
68127;BMP180;54931;52.098;21.006;2022-09-20T04:16:24;99854.20;;;8.88
68127;BMP180;54931;52.098;21.006;2022-09-20T04:22:06;99854.20;;;8.90
68127;BMP180;54931;52.098;21.006;2022-09-20T04:27:21;99857.40;;;8.90
68127;BMP180;54931;52.098;21.006;2022-09-20T04:38:26;99871.60;;;8.96
68127;BMP180;54931;52.098;21.006;2022-09-20T04:49:58;99892.20;;;9.00
68127;BMP180;54931;52.098;21.006;2022-09-20T04:53:01;99892.80;;;9.00
68127;BMP180;54931;52.098;21.006;2022-09-20T04:55:49;99891.60;;;9.00
68127;BMP180;54931;52.098;21.006;2022-09-20T05:09:44;99902.80;;;9.00
68127;BMP180;54931;52.098;21.006;2022-09-20T05:12:24;99907.20;;;9.10
68127;BMP180;54931;52.098;21.006;2022-09-20T05:26:50;99923.20;;;9.20
68127;BMP180;54931;52.098;21.006;2022-09-20T05:29:39;99935.40;;;9.20
68127;BMP180;54931;52.098;21.006;2022-09-20T05:34:59;99931.60;;;9.20
68127;BMP180;54931;52.098;21.006;2022-09-20T05:45:54;99939.60;;;9.40
68127;BMP180;54931;52.098;21.006;2022-09-20T05:48:51;99949.80;;;9.40
68127;BMP180;54931;52.098;21.006;2022-09-20T05:51:35;99949.80;;;9.40
68127;BMP180;54931;52.098;21.006;2022-09-20T05:54:28;99954.60;;;9.40
68127;BMP180;54931;52.098;21.006;2022-09-20T05:57:28;99958.80;;;9.50
68127;BMP180;54931;52.098;21.006;2022-09-20T06:03:32;99952.20;;;9.50
68127;BMP180;54931;52.098;21.006;2022-09-20T06:08:25;99956.60;;;9.50
68127;BMP180;54931;52.098;21.006;2022-09-20T06:13:49;99961.40;;;9.60
68127;BMP180;54931;52.098;21.006;2022-09-20T06:16:42;99960.60;;;9.60
68127;BMP180;54931;52.098;21.006;2022-09-20T06:21:58;99966.00;;;9.58
68127;BMP180;54931;52.098;21.006;2022-09-20T06:26:55;99968.20;;;9.60
68127;BMP180;54931;52.098;21.006;2022-09-20T06:29:35;99971.60;;;9.62
68127;BMP180;54931;52.098;21.006;2022-09-20T06:32:04;99976.60;;;9.70
68127;BMP180;54931;52.098;21.006;2022-09-20T06:34:31;99980.60;;;9.80
68127;BMP180;54931;52.098;21.006;2022-09-20T06:40:42;99984.00;;;9.70
68127;BMP180;54931;52.098;21.006;2022-09-20T06:43:46;99982.40;;;9.80
68127;BMP180;54931;52.098;21.006;2022-09-20T06:46:14;99987.40;;;9.80
68127;BMP180;54931;52.098;21.006;2022-09-20T06:48:41;99983.80;;;9.74
68127;BMP180;54931;52.098;21.006;2022-09-20T06:51:08;99980.20;;;9.76
68127;BMP180;54931;52.098;21.006;2022-09-20T06:53:38;99984.20;;;9.70
68127;BMP180;54931;52.098;21.006;2022-09-20T06:56:08;99983.20;;;9.70
68127;BMP180;54931;52.098;21.006;2022-09-20T06:58:38;99981.40;;;9.78
68127;BMP180;54931;52.098;21.006;2022-09-20T07:01:05;99984.80;;;9.80
68127;BMP180;54931;52.098;21.006;2022-09-20T07:03:32;99980.40;;;9.80
68127;BMP180;54931;52.098;21.006;2022-09-20T07:06:00;99989.00;;;9.90
68127;BMP180;54931;52.098;21.006;2022-09-20T07:08:27;99987.20;;;9.90
68127;BMP180;54931;52.098;21.006;2022-09-20T07:10:54;99992.80;;;9.90
68127;BMP180;54931;52.098;21.006;2022-09-20T07:13:21;99997.80;;;10.00
68127;BMP180;54931;52.098;21.006;2022-09-20T07:15:49;100002.00;;;10.10
68127;BMP180;54931;52.098;21.006;2022-09-20T07:18:16;100005.20;;;10.04
68127;BMP180;54931;52.098;21.006;2022-09-20T07:20:43;100012.20;;;10.08
68127;BMP180;54931;52.098;21.006;2022-09-20T07:23:10;100016.60;;;10.10
68127;BMP180;54931;52.098;21.006;2022-09-20T07:25:37;100024.00;;;10.10
68127;BMP180;54931;52.098;21.006;2022-09-20T07:28:04;100027.60;;;10.06
68127;BMP180;54931;52.098;21.006;2022-09-20T07:30:31;100033.60;;;10.10
68127;BMP180;54931;52.098;21.006;2022-09-20T07:32:58;100040.60;;;10.10
68127;BMP180;54931;52.098;21.006;2022-09-20T07:35:25;100039.20;;;10.20
68127;BMP180;54931;52.098;21.006;2022-09-20T07:37:57;100042.20;;;10.20
68127;BMP180;54931;52.098;21.006;2022-09-20T07:40:24;100048.00;;;10.20
68127;BMP180;54931;52.098;21.006;2022-09-20T07:42:51;100050.00;;;10.30
68127;BMP180;54931;52.098;21.006;2022-09-20T07:45:18;100046.20;;;10.40
68127;BMP180;54931;52.098;21.006;2022-09-20T07:47:45;100051.40;;;10.50
68127;BMP180;54931;52.098;21.006;2022-09-20T07:50:12;100052.20;;;10.50
68127;BMP180;54931;52.098;21.006;2022-09-20T07:52:40;100052.60;;;10.42
68127;BMP180;54931;52.098;21.006;2022-09-20T07:55:07;100058.80;;;10.44
68127;BMP180;54931;52.098;21.006;2022-09-20T07:57:35;100060.40;;;10.50
68127;BMP180;54931;52.098;21.006;2022-09-20T08:00:07;100059.20;;;10.50
68127;BMP180;54931;52.098;21.006;2022-09-20T08:02:34;100063.00;;;10.50
68127;BMP180;54931;52.098;21.006;2022-09-20T08:05:01;100058.40;;;10.44
68127;BMP180;54931;52.098;21.006;2022-09-20T08:07:30;100060.60;;;10.40
68127;BMP180;54931;52.098;21.006;2022-09-20T08:09:57;100058.80;;;10.30
68127;BMP180;54931;52.098;21.006;2022-09-20T08:12:25;100062.00;;;10.30
68127;BMP180;54931;52.098;21.006;2022-09-20T08:14:53;100061.80;;;10.30
68127;BMP180;54931;52.098;21.006;2022-09-20T08:17:20;100062.00;;;10.20
68127;BMP180;54931;52.098;21.006;2022-09-20T08:19:47;100066.60;;;10.24
68127;BMP180;54931;52.098;21.006;2022-09-20T08:22:16;100063.80;;;10.30
68127;BMP180;54931;52.098;21.006;2022-09-20T08:24:43;100066.20;;;10.30
68127;BMP180;54931;52.098;21.006;2022-09-20T08:27:10;100067.40;;;10.40
68127;BMP180;54931;52.098;21.006;2022-09-20T08:29:38;100069.80;;;10.48
68127;BMP180;54931;52.098;21.006;2022-09-20T08:32:06;100079.00;;;10.50
68127;BMP180;54931;52.098;21.006;2022-09-20T08:34:33;100080.40;;;10.50
68127;BMP180;54931;52.098;21.006;2022-09-20T08:36:59;100080.20;;;10.56
68127;BMP180;54931;52.098;21.006;2022-09-20T08:39:27;100084.20;;;10.66
68127;BMP180;54931;52.098;21.006;2022-09-20T08:45:04;100085.80;;;11.00
68127;BMP180;54931;52.098;21.006;2022-09-20T08:47:36;100086.00;;;11.00
68127;BMP180;54931;52.098;21.006;2022-09-20T08:50:05;100089.40;;;11.00
68127;BMP180;54931;52.098;21.006;2022-09-20T08:52:35;100091.80;;;11.02
68127;BMP180;54931;52.098;21.006;2022-09-20T08:55:13;100093.40;;;11.10
68127;BMP180;54931;52.098;21.006;2022-09-20T08:57:43;100092.20;;;11.10
68127;BMP180;54931;52.098;21.006;2022-09-20T09:00:37;100093.40;;;11.06
68127;BMP180;54931;52.098;21.006;2022-09-20T09:03:10;100100.40;;;11.08
68127;BMP180;54931;52.098;21.006;2022-09-20T09:05:51;100101.00;;;11.10
68127;BMP180;54931;52.098;21.006;2022-09-20T09:08:21;100103.20;;;11.20
68127;BMP180;54931;52.098;21.006;2022-09-20T09:10:55;100102.60;;;11.26
68127;BMP180;54931;52.098;21.006;2022-09-20T09:13:33;100105.40;;;11.40
68127;BMP180;54931;52.098;21.006;2022-09-20T09:16:10;100108.00;;;11.50
68127;BMP180;54931;52.098;21.006;2022-09-20T09:18:41;100107.00;;;11.60
68127;BMP180;54931;52.098;21.006;2022-09-20T09:21:16;100106.80;;;11.60
68127;BMP180;54931;52.098;21.006;2022-09-20T09:23:54;100104.00;;;11.60
68127;BMP180;54931;52.098;21.006;2022-09-20T09:26:27;100111.80;;;11.60
68127;BMP180;54931;52.098;21.006;2022-09-20T09:29:21;100112.60;;;11.60
68127;BMP180;54931;52.098;21.006;2022-09-20T09:31:51;100111.20;;;11.50
68127;BMP180;54931;52.098;21.006;2022-09-20T09:34:32;100113.60;;;11.50
68127;BMP180;54931;52.098;21.006;2022-09-20T09:37:00;100114.40;;;11.50
68127;BMP180;54931;52.098;21.006;2022-09-20T09:39:31;100111.80;;;11.48
68127;BMP180;54931;52.098;21.006;2022-09-20T09:41:58;100116.60;;;11.50
68127;BMP180;54931;52.098;21.006;2022-09-20T09:44:28;100114.60;;;11.50
68127;BMP180;54931;52.098;21.006;2022-09-20T09:46:56;100110.40;;;11.50
68127;BMP180;54931;52.098;21.006;2022-09-20T09:49:24;100113.20;;;11.50
68127;BMP180;54931;52.098;21.006;2022-09-20T09:52:15;100116.60;;;11.50
68127;BMP180;54931;52.098;21.006;2022-09-20T09:54:47;100118.20;;;11.50
68127;BMP180;54931;52.098;21.006;2022-09-20T10:00:14;100122.80;;;11.60
68127;BMP180;54931;52.098;21.006;2022-09-20T10:22:21;100127.20;;;12.50
68127;BMP180;54931;52.098;21.006;2022-09-20T10:25:10;100127.80;;;12.40
68127;BMP180;54931;52.098;21.006;2022-09-20T10:28:22;100131.80;;;12.22
68127;BMP180;54931;52.098;21.006;2022-09-20T10:31:36;100128.40;;;12.20
68127;BMP180;54931;52.098;21.006;2022-09-20T10:39:29;100128.20;;;12.30
68127;BMP180;54931;52.098;21.006;2022-09-20T10:42:55;100124.60;;;12.36
68127;BMP180;54931;52.098;21.006;2022-09-20T10:56:42;100128.40;;;12.90
68127;BMP180;54931;52.098;21.006;2022-09-20T11:02:32;100127.00;;;13.10
68127;BMP180;54931;52.098;21.006;2022-09-20T11:05:36;100126.60;;;13.20
68127;BMP180;54931;52.098;21.006;2022-09-20T11:08:19;100126.80;;;13.28
68127;BMP180;54931;52.098;21.006;2022-09-20T11:13:43;100129.20;;;13.30
68127;BMP180;54931;52.098;21.006;2022-09-20T11:19:04;100130.80;;;13.48
68127;BMP180;54931;52.098;21.006;2022-09-20T11:21:48;100118.60;;;13.40
68127;BMP180;54931;52.098;21.006;2022-09-20T11:26:54;100122.40;;;13.20
68127;BMP180;54931;52.098;21.006;2022-09-20T11:29:37;100124.00;;;13.30
68127;BMP180;54931;52.098;21.006;2022-09-20T11:37:49;100126.40;;;14.20
68127;BMP180;54931;52.098;21.006;2022-09-20T11:40:28;100124.60;;;14.40
68127;BMP180;54931;52.098;21.006;2022-09-20T11:43:00;100127.40;;;14.70
68127;BMP180;54931;52.098;21.006;2022-09-20T11:45:28;100129.40;;;14.80
68127;BMP180;54931;52.098;21.006;2022-09-20T11:51:28;100123.40;;;14.80
68127;BMP180;54931;52.098;21.006;2022-09-20T11:56:55;100124.80;;;14.60
68127;BMP180;54931;52.098;21.006;2022-09-20T11:59:48;100124.80;;;14.60
68127;BMP180;54931;52.098;21.006;2022-09-20T12:02:22;100119.80;;;14.64
68127;BMP180;54931;52.098;21.006;2022-09-20T12:04:50;100119.80;;;14.70
68127;BMP180;54931;52.098;21.006;2022-09-20T12:07:21;100119.60;;;14.80
68127;BMP180;54931;52.098;21.006;2022-09-20T12:10:02;100124.00;;;15.04
68127;BMP180;54931;52.098;21.006;2022-09-20T12:12:42;100124.00;;;15.22
68127;BMP180;54931;52.098;21.006;2022-09-20T12:15:29;100117.00;;;15.20
68127;BMP180;54931;52.098;21.006;2022-09-20T12:28:46;100121.20;;;15.04
68127;BMP180;54931;52.098;21.006;2022-09-20T12:36:43;100110.80;;;15.60
68127;BMP180;54931;52.098;21.006;2022-09-20T12:41:49;100105.80;;;15.88
68127;BMP180;54931;52.098;21.006;2022-09-20T13:00:47;100110.20;;;16.00
68127;BMP180;54931;52.098;21.006;2022-09-20T13:03:41;100110.00;;;15.92
68127;BMP180;54931;52.098;21.006;2022-09-20T13:06:35;100114.60;;;15.90
68127;BMP180;54931;52.098;21.006;2022-09-20T13:09:09;100114.00;;;15.80
68127;BMP180;54931;52.098;21.006;2022-09-20T13:11:53;100107.80;;;15.84
68127;BMP180;54931;52.098;21.006;2022-09-20T13:14:27;100110.00;;;15.84
68127;BMP180;54931;52.098;21.006;2022-09-20T13:17:02;100108.40;;;15.90
68127;BMP180;54931;52.098;21.006;2022-09-20T13:24:37;100111.60;;;16.00
68127;BMP180;54931;52.098;21.006;2022-09-20T13:27:08;100115.40;;;16.00
68127;BMP180;54931;52.098;21.006;2022-09-20T13:29:42;100119.00;;;16.00
68127;BMP180;54931;52.098;21.006;2022-09-20T13:32:24;100115.80;;;15.90
68127;BMP180;54931;52.098;21.006;2022-09-20T13:35:31;100125.80;;;15.80
68127;BMP180;54931;52.098;21.006;2022-09-20T13:38:02;100124.20;;;15.70
68127;BMP180;54931;52.098;21.006;2022-09-20T13:40:41;100128.40;;;15.60
68127;BMP180;54931;52.098;21.006;2022-09-20T13:46:14;100119.20;;;15.94
68127;BMP180;54931;52.098;21.006;2022-09-20T13:48:53;100127.20;;;16.20
68127;BMP180;54931;52.098;21.006;2022-09-20T13:51:26;100129.80;;;16.20
68127;BMP180;54931;52.098;21.006;2022-09-20T13:53:53;100127.20;;;16.10
68127;BMP180;54931;52.098;21.006;2022-09-20T13:56:40;100125.00;;;16.00
68127;BMP180;54931;52.098;21.006;2022-09-20T13:59:10;100126.20;;;15.80
68127;BMP180;54931;52.098;21.006;2022-09-20T14:01:50;100129.80;;;15.62
68127;BMP180;54931;52.098;21.006;2022-09-20T14:04:26;100127.40;;;15.50
68127;BMP180;54931;52.098;21.006;2022-09-20T14:06:56;100129.00;;;15.40
68127;BMP180;54931;52.098;21.006;2022-09-20T14:09:30;100129.00;;;15.20
68127;BMP180;54931;52.098;21.006;2022-09-20T14:11:58;100129.80;;;15.10
68127;BMP180;54931;52.098;21.006;2022-09-20T14:14:26;100130.40;;;15.00
68127;BMP180;54931;52.098;21.006;2022-09-20T14:16:56;100129.00;;;15.10
68127;BMP180;54931;52.098;21.006;2022-09-20T14:19:30;100133.60;;;15.20
68127;BMP180;54931;52.098;21.006;2022-09-20T14:22:02;100140.60;;;15.30
68127;BMP180;54931;52.098;21.006;2022-09-20T14:24:31;100143.80;;;15.20
68127;BMP180;54931;52.098;21.006;2022-09-20T14:27:20;100146.80;;;15.06
68127;BMP180;54931;52.098;21.006;2022-09-20T14:29:49;100153.20;;;14.80
68127;BMP180;54931;52.098;21.006;2022-09-20T14:34:47;100131.80;;;14.18
68127;BMP180;54931;52.098;21.006;2022-09-20T14:39:52;100130.60;;;13.60
68127;BMP180;54931;52.098;21.006;2022-09-20T14:42:32;100130.80;;;13.32
68127;BMP180;54931;52.098;21.006;2022-09-20T14:45:02;100134.20;;;13.18
68127;BMP180;54931;52.098;21.006;2022-09-20T14:47:52;100136.60;;;13.00
68127;BMP180;54931;52.098;21.006;2022-09-20T14:50:24;100134.80;;;12.90
68127;BMP180;54931;52.098;21.006;2022-09-20T14:53:00;100135.20;;;12.78
68127;BMP180;54931;52.098;21.006;2022-09-20T14:55:28;100136.40;;;12.60
68127;BMP180;54931;52.098;21.006;2022-09-20T14:57:58;100133.80;;;12.60
68127;BMP180;54931;52.098;21.006;2022-09-20T15:00:26;100131.80;;;12.60
68127;BMP180;54931;52.098;21.006;2022-09-20T15:03:02;100138.20;;;12.60
68127;BMP180;54931;52.098;21.006;2022-09-20T15:05:30;100141.80;;;12.60
68127;BMP180;54931;52.098;21.006;2022-09-20T15:07:57;100139.40;;;12.70
68127;BMP180;54931;52.098;21.006;2022-09-20T15:10:25;100141.20;;;12.70
68127;BMP180;54931;52.098;21.006;2022-09-20T15:12:52;100143.80;;;12.80
68127;BMP180;54931;52.098;21.006;2022-09-20T15:15:19;100144.20;;;12.78
68127;BMP180;54931;52.098;21.006;2022-09-20T15:17:47;100149.40;;;12.70
68127;BMP180;54931;52.098;21.006;2022-09-20T15:20:17;100149.20;;;12.60
68127;BMP180;54931;52.098;21.006;2022-09-20T15:22:45;100152.60;;;12.60
68127;BMP180;54931;52.098;21.006;2022-09-20T15:25:13;100160.60;;;12.52
68127;BMP180;54931;52.098;21.006;2022-09-20T15:27:43;100162.20;;;12.50
68127;BMP180;54931;52.098;21.006;2022-09-20T15:30:15;100162.20;;;12.52
68127;BMP180;54931;52.098;21.006;2022-09-20T15:32:43;100167.40;;;12.50
68127;BMP180;54931;52.098;21.006;2022-09-20T15:35:11;100167.80;;;12.40
68127;BMP180;54931;52.098;21.006;2022-09-20T15:37:40;100177.20;;;12.30
68127;BMP180;54931;52.098;21.006;2022-09-20T15:40:07;100185.20;;;12.30
68127;BMP180;54931;52.098;21.006;2022-09-20T15:42:34;100192.20;;;12.28
68127;BMP180;54931;52.098;21.006;2022-09-20T15:45:08;100189.60;;;12.20
68127;BMP180;54931;52.098;21.006;2022-09-20T15:47:37;100189.40;;;12.20
68127;BMP180;54931;52.098;21.006;2022-09-20T15:50:05;100185.20;;;12.10
68127;BMP180;54931;52.098;21.006;2022-09-20T15:52:38;100185.80;;;12.20
68127;BMP180;54931;52.098;21.006;2022-09-20T15:55:08;100183.60;;;12.20
68127;BMP180;54931;52.098;21.006;2022-09-20T15:57:35;100190.40;;;12.22
68127;BMP180;54931;52.098;21.006;2022-09-20T16:00:03;100186.60;;;12.30
68127;BMP180;54931;52.098;21.006;2022-09-20T16:02:30;100190.00;;;12.30
68127;BMP180;54931;52.098;21.006;2022-09-20T16:04:57;100188.60;;;12.20
68127;BMP180;54931;52.098;21.006;2022-09-20T16:07:25;100197.00;;;12.10
68127;BMP180;54931;52.098;21.006;2022-09-20T16:09:53;100203.80;;;12.00
68127;BMP180;54931;52.098;21.006;2022-09-20T16:12:22;100212.00;;;12.00
68127;BMP180;54931;52.098;21.006;2022-09-20T16:14:50;100215.40;;;12.00
68127;BMP180;54931;52.098;21.006;2022-09-20T16:17:18;100214.20;;;12.10
68127;BMP180;54931;52.098;21.006;2022-09-20T16:20:06;100217.80;;;12.20
68127;BMP180;54931;52.098;21.006;2022-09-20T16:22:33;100216.00;;;12.12
68127;BMP180;54931;52.098;21.006;2022-09-20T16:25:00;100219.40;;;12.10
68127;BMP180;54931;52.098;21.006;2022-09-20T16:27:33;100223.20;;;12.10
68127;BMP180;54931;52.098;21.006;2022-09-20T16:30:01;100220.40;;;12.08
68127;BMP180;54931;52.098;21.006;2022-09-20T16:32:28;100227.80;;;12.00
68127;BMP180;54931;52.098;21.006;2022-09-20T16:34:55;100229.60;;;11.90
68127;BMP180;54931;52.098;21.006;2022-09-20T16:37:24;100230.00;;;11.90
68127;BMP180;54931;52.098;21.006;2022-09-20T16:39:52;100230.60;;;11.82
68127;BMP180;54931;52.098;21.006;2022-09-20T16:42:19;100230.20;;;11.80
68127;BMP180;54931;52.098;21.006;2022-09-20T16:44:46;100229.80;;;11.80
68127;BMP180;54931;52.098;21.006;2022-09-20T16:47:14;100230.60;;;11.80
68127;BMP180;54931;52.098;21.006;2022-09-20T16:49:50;100233.00;;;11.70
68127;BMP180;54931;52.098;21.006;2022-09-20T16:52:19;100232.00;;;11.78
68127;BMP180;54931;52.098;21.006;2022-09-20T16:54:47;100232.00;;;11.80
68127;BMP180;54931;52.098;21.006;2022-09-20T16:57:14;100232.60;;;11.80
68127;BMP180;54931;52.098;21.006;2022-09-20T16:59:41;100233.60;;;11.80
68127;BMP180;54931;52.098;21.006;2022-09-20T17:02:10;100233.20;;;11.80
68127;BMP180;54931;52.098;21.006;2022-09-20T17:04:38;100241.80;;;11.70
68127;BMP180;54931;52.098;21.006;2022-09-20T17:07:12;100242.20;;;11.60
68127;BMP180;54931;52.098;21.006;2022-09-20T17:09:39;100239.20;;;11.60
68127;BMP180;54931;52.098;21.006;2022-09-20T17:12:06;100237.00;;;11.60
68127;BMP180;54931;52.098;21.006;2022-09-20T17:14:35;100240.40;;;11.60
68127;BMP180;54931;52.098;21.006;2022-09-20T17:17:02;100239.00;;;11.60
68127;BMP180;54931;52.098;21.006;2022-09-20T17:19:29;100246.20;;;11.66
68127;BMP180;54931;52.098;21.006;2022-09-20T17:21:56;100255.60;;;11.60
68127;BMP180;54931;52.098;21.006;2022-09-20T17:24:23;100259.60;;;11.52
68127;BMP180;54931;52.098;21.006;2022-09-20T17:26:51;100260.40;;;11.40
68127;BMP180;54931;52.098;21.006;2022-09-20T17:29:19;100258.80;;;11.40
68127;BMP180;54931;52.098;21.006;2022-09-20T17:31:48;100266.00;;;11.40
68127;BMP180;54931;52.098;21.006;2022-09-20T17:34:17;100271.60;;;11.40
68127;BMP180;54931;52.098;21.006;2022-09-20T17:36:47;100272.40;;;11.30
68127;BMP180;54931;52.098;21.006;2022-09-20T17:39:15;100271.40;;;11.30
68127;BMP180;54931;52.098;21.006;2022-09-20T17:41:44;100274.80;;;11.20
68127;BMP180;54931;52.098;21.006;2022-09-20T17:44:13;100277.40;;;11.20
68127;BMP180;54931;52.098;21.006;2022-09-20T17:46:42;100285.00;;;11.18
68127;BMP180;54931;52.098;21.006;2022-09-20T17:49:12;100284.20;;;11.10
68127;BMP180;54931;52.098;21.006;2022-09-20T17:51:42;100283.00;;;11.04
68127;BMP180;54931;52.098;21.006;2022-09-20T17:54:10;100286.40;;;11.00
68127;BMP180;54931;52.098;21.006;2022-09-20T17:56:43;100286.20;;;11.00
68127;BMP180;54931;52.098;21.006;2022-09-20T17:59:12;100288.60;;;11.00
68127;BMP180;54931;52.098;21.006;2022-09-20T18:01:43;100284.00;;;11.00
68127;BMP180;54931;52.098;21.006;2022-09-20T18:04:11;100290.20;;;10.90
68127;BMP180;54931;52.098;21.006;2022-09-20T18:06:43;100289.80;;;10.90
68127;BMP180;54931;52.098;21.006;2022-09-20T18:09:13;100294.20;;;10.80
68127;BMP180;54931;52.098;21.006;2022-09-20T18:11:45;100290.20;;;10.80
68127;BMP180;54931;52.098;21.006;2022-09-20T18:14:33;100291.00;;;10.80
68127;BMP180;54931;52.098;21.006;2022-09-20T18:17:00;100296.40;;;10.80
68127;BMP180;54931;52.098;21.006;2022-09-20T18:19:27;100298.40;;;10.80
68127;BMP180;54931;52.098;21.006;2022-09-20T18:22:00;100300.00;;;10.72
68127;BMP180;54931;52.098;21.006;2022-09-20T18:24:28;100301.00;;;10.70
68127;BMP180;54931;52.098;21.006;2022-09-20T18:26:55;100299.60;;;10.70
68127;BMP180;54931;52.098;21.006;2022-09-20T18:29:22;100298.80;;;10.70
68127;BMP180;54931;52.098;21.006;2022-09-20T18:31:52;100305.00;;;10.70
68127;BMP180;54931;52.098;21.006;2022-09-20T18:34:25;100309.20;;;10.70
68127;BMP180;54931;52.098;21.006;2022-09-20T18:36:57;100309.60;;;10.60
68127;BMP180;54931;52.098;21.006;2022-09-20T18:39:26;100314.80;;;10.60
68127;BMP180;54931;52.098;21.006;2022-09-20T18:41:54;100318.40;;;10.60
68127;BMP180;54931;52.098;21.006;2022-09-20T18:44:21;100318.00;;;10.60
68127;BMP180;54931;52.098;21.006;2022-09-20T18:46:50;100319.20;;;10.50
68127;BMP180;54931;52.098;21.006;2022-09-20T18:49:21;100324.00;;;10.50
68127;BMP180;54931;52.098;21.006;2022-09-20T18:51:48;100330.80;;;10.48
68127;BMP180;54931;52.098;21.006;2022-09-20T18:54:16;100332.20;;;10.50
68127;BMP180;54931;52.098;21.006;2022-09-20T18:56:46;100333.80;;;10.50
68127;BMP180;54931;52.098;21.006;2022-09-20T18:59:19;100330.60;;;10.54
68127;BMP180;54931;52.098;21.006;2022-09-20T19:24:09;100342.40;;;10.30
68127;BMP180;54931;52.098;21.006;2022-09-20T19:26:39;100343.00;;;10.20
68127;BMP180;54931;52.098;21.006;2022-09-20T19:29:22;100344.00;;;10.20
68127;BMP180;54931;52.098;21.006;2022-09-20T19:31:53;100347.80;;;10.10
68127;BMP180;54931;52.098;21.006;2022-09-20T19:34:29;100351.60;;;10.10
68127;BMP180;54931;52.098;21.006;2022-09-20T19:37:08;100354.80;;;10.08
68127;BMP180;54931;52.098;21.006;2022-09-20T19:40:09;100357.00;;;10.00
68127;BMP180;54931;52.098;21.006;2022-09-20T19:42:54;100357.40;;;10.00